Time;durP1;ratioP1;P1;durP2;ratioP2;P2;SDS_P1;SDS_P2;PMS_P1;PMS_P2;Temp;Humidity;BMP_temperature;BMP_pressure;BME280_temperature;BME280_humidity;BME280_pressure;Samples;Min_cycle;Max_cycle;Signal;HPM_P1;HPM_P2
2022/12/19 00:01:30;;;;;;;3.38;3.15;;;;;;;-1.51;100.00;101885.06;6042590;23;20060;-69
2022/12/19 00:03:59;;;;;;;4.60;4.05;;;;;;;-1.36;100.00;101898.22;6049631;23;20054;-69
2022/12/19 00:06:28;;;;;;;5.20;4.88;;;;;;;-1.35;100.00;101879.31;6042961;23;20034;-70
2022/12/19 00:08:57;;;;;;;3.38;3.08;;;;;;;-1.29;100.00;101887.13;6036556;23;20029;-69
2022/12/19 00:11:25;;;;;;;4.88;4.47;;;;;;;-1.52;100.00;101855.88;6033746;23;20017;-70
2022/12/19 00:13:51;;;;;;;3.33;3.17;;;;;;;-1.53;100.00;101849.00;6032623;23;20022;-69
2022/12/19 00:16:21;;;;;;;5.35;3.92;;;;;;;-1.19;100.00;101875.28;6048679;23;20022;-69
2022/12/19 00:18:49;;;;;;;4.32;4.05;;;;;;;-2.41;100.00;101690.66;6050217;23;20592;-69
2022/12/19 00:21:22;;;;;;;5.00;4.13;;;;;;;-1.17;100.00;101889.03;6043995;23;20039;-69
2022/12/19 00:23:49;;;;;;;6.00;4.07;;;;;;;-1.31;100.00;101864.78;6046221;23;21313;-70
2022/12/19 00:26:21;;;;;;;7.28;4.95;;;;;;;-1.22;100.00;101872.66;6033351;23;20491;-70
2022/12/19 00:28:51;;;;;;;5.93;5.45;;;;;;;-1.38;100.00;101847.50;6044069;23;20155;-69
2022/12/19 00:31:19;;;;;;;7.00;3.95;;;;;;;-1.81;100.00;101766.19;6038457;23;20023;-70
2022/12/19 00:33:46;;;;;;;3.72;3.42;;;;;;;-1.16;100.00;101872.75;6042544;23;20682;-70
2022/12/19 00:36:19;;;;;;;5.35;4.53;;;;;;;-1.13;100.00;101861.63;6046946;23;20536;-70
2022/12/19 00:38:50;;;;;;;4.30;3.92;;;;;;;-1.04;100.00;101854.03;6039742;23;20085;-70
2022/12/19 00:41:20;;;;;;;4.72;4.43;;;;;;;-1.10;100.00;101841.03;6015643;23;20069;-70
2022/12/19 00:44:01;;;;;;;3.75;3.40;;;;;;;-1.12;100.00;101830.75;6031343;23;20071;-70
2022/12/19 00:46:29;;;;;;;6.10;5.28;;;;;;;-0.99;100.00;101857.53;6037528;23;20011;-70
2022/12/19 00:48:56;;;;;;;7.55;4.10;;;;;;;-1.01;100.00;101867.81;6041734;23;20019;-70
2022/12/19 00:51:25;;;;;;;3.60;3.40;;;;;;;-1.07;100.00;101838.53;6039343;23;20102;-70
2022/12/19 00:53:53;;;;;;;6.20;4.95;;;;;;;-1.19;100.00;101817.75;6012525;23;20084;-69
2022/12/19 00:56:22;;;;;;;9.45;5.35;;;;;;;-1.02;100.00;101830.03;6035450;23;20019;-70
2022/12/19 00:58:49;;;;;;;5.88;5.13;;;;;;;-1.36;100.00;101777.19;6040508;23;20622;-70
2022/12/19 01:01:19;;;;;;;4.22;3.97;;;;;;;-0.85;100.00;101837.13;6045460;23;20453;-70
2022/12/19 01:03:46;;;;;;;6.00;5.18;;;;;;;-0.88;100.00;101824.16;6018397;23;20042;-70
2022/12/19 01:06:33;;;;;;;4.10;3.88;;;;;;;-1.22;100.00;101775.66;6019227;23;20033;-70
2022/12/19 01:09:00;;;;;;;6.97;3.95;;;;;;;-0.87;100.00;101829.34;6034007;23;20111;-70
2022/12/19 01:14:13;;;;;;;4.82;4.32;;;;;;;-0.90;100.00;101800.97;6033591;23;20026;-70
2022/12/19 01:16:48;;;;;;;5.43;4.95;;;;;;;-0.85;100.00;101794.16;6035018;23;20073;-70
2022/12/19 01:19:14;;;;;;;9.13;4.25;;;;;;;-1.21;100.00;101738.75;6042313;23;20105;-70
2022/12/19 01:21:41;;;;;;;5.05;4.65;;;;;;;-0.85;100.00;101786.44;6013001;23;20713;-69
2022/12/19 01:24:08;;;;;;;5.40;4.90;;;;;;;-0.84;100.00;101780.44;6040484;23;20022;-70
2022/12/19 01:26:34;;;;;;;7.28;4.07;;;;;;;-1.17;100.00;101725.91;6012515;23;20038;-70
2022/12/19 01:29:01;;;;;;;6.90;4.63;;;;;;;-0.83;100.00;101794.19;6041226;23;20026;-70
2022/12/19 01:31:27;;;;;;;4.55;4.25;;;;;;;-0.78;100.00;101781.34;6048925;23;20022;-69
2022/12/19 01:33:54;;;;;;;3.60;3.50;;;;;;;-1.19;100.00;101713.00;6052671;23;20022;-70
2022/12/19 01:36:20;;;;;;;3.90;3.70;;;;;;;-1.21;100.00;101707.84;6037161;23;20022;-69
2022/12/19 01:38:46;;;;;;;3.92;3.70;;;;;;;-1.63;100.00;101634.34;6044529;23;20026;-70
2022/12/19 01:41:13;;;;;;;5.32;5.03;;;;;;;-1.04;100.00;101720.94;6039762;23;20013;-70
2022/12/19 01:43:59;;;;;;;7.03;4.43;;;;;;;-1.06;100.00;101702.03;6014057;23;20038;-70
2022/12/19 01:46:51;;;;;;;5.65;5.15;;;;;;;-0.65;100.00;101753.16;6047167;23;20038;-70
2022/12/19 01:49:24;;;;;;;3.00;2.90;;;;;;;-0.56;100.00;101757.56;6039091;23;20026;-70
2022/12/19 01:51:54;;;;;;;5.22;4.15;;;;;;;-0.54;100.00;101758.44;6035575;23;21431;-69
2022/12/19 01:54:25;;;;;;;7.28;5.07;;;;;;;-1.13;100.00;101648.69;6011422;23;20517;-69
2022/12/19 01:56:56;;;;;;;4.22;3.70;;;;;;;-0.50;100.00;101747.31;6031299;23;20622;-71
2022/12/19 01:59:33;;;;;;;4.50;4.20;;;;;;;-0.49;100.00;101730.97;6037507;23;20121;-68
2022/12/19 02:02:36;;;;;;;4.85;3.80;;;;;;;-0.44;100.00;101734.47;6034029;23;20015;-68
2022/12/19 02:05:04;;;;;;;7.30;5.07;;;;;;;-0.36;100.00;101733.69;6037803;23;20042;-69
2022/12/19 02:07:31;;;;;;;5.38;4.82;;;;;;;-0.76;100.00;101658.50;6035021;23;20110;-71
2022/12/19 02:10:00;;;;;;;4.45;4.15;;;;;;;-0.53;100.00;101708.59;6005007;23;20048;-70
2022/12/19 02:12:32;;;;;;;7.45;4.88;;;;;;;-0.37;100.00;101707.03;6027724;23;20015;-69
2022/12/19 02:15:00;;;;;;;5.63;4.95;;;;;;;-0.77;100.00;101631.88;6035197;23;20030;-69
2022/12/19 02:17:42;;;;;;;5.00;4.55;;;;;;;-0.56;100.00;101654.44;6041783;23;20073;-70
2022/12/19 02:20:33;;;;;;;4.25;3.95;;;;;;;-1.10;100.00;101555.13;6028958;23;20042;-69
2022/12/19 02:22:59;;;;;;;8.20;6.07;;;;;;;-0.33;100.00;101687.28;6035447;23;20024;-69
2022/12/19 02:26:03;;;;;;;6.15;4.68;;;;;;;-0.26;100.00;101673.56;6009917;23;20027;-69
2022/12/19 02:28:54;;;;;;;6.25;4.78;;;;;;;-0.26;100.00;101663.25;6006831;23;20043;-69
2022/12/19 02:31:27;;;;;;;22.60;21.40;;;;;;;-0.25;100.00;101688.22;6008405;23;20429;-69
2022/12/19 02:34:18;;;;;;;12.70;4.88;;;;;;;-0.25;100.00;101657.25;5952844;23;20030;-69
2022/12/19 02:37:02;;;;;;;4.20;3.92;;;;;;;-0.20;100.00;101647.88;6039985;23;20486;-69
2022/12/19 02:39:51;;;;;;;5.07;4.65;;;;;;;-0.22;100.00;101640.09;6011207;23;20062;-69
2022/12/19 02:42:26;;;;;;;4.47;4.15;;;;;;;-0.20;100.00;101637.53;6032753;23;20009;-70
2022/12/19 02:45:01;;;;;;;4.55;4.28;;;;;;;-0.11;100.00;101616.94;6038731;23;20047;-69
2022/12/19 02:47:31;;;;;;;4.90;4.47;;;;;;;-0.39;100.00;101573.78;6034584;23;20147;-70
2022/12/19 02:49:57;;;;;;;4.40;4.05;;;;;;;-0.49;100.00;101563.38;6040264;23;21162;-70
2022/12/19 02:52:24;;;;;;;5.07;4.57;;;;;;;-0.11;100.00;101606.63;6038338;23;20126;-70
2022/12/19 02:54:54;;;;;;;7.55;6.78;;;;;;;-0.39;100.00;101569.47;6033693;23;20023;-69
2022/12/19 02:57:29;;;;;;;5.38;4.88;;;;;;;-0.04;100.00;101615.25;6038276;23;20022;-71
2022/12/19 03:00:19;;;;;;;4.65;4.07;;;;;;;-0.35;100.00;101583.25;6038240;23;20093;-69
2022/12/19 03:03:28;;;;;;;4.50;4.25;;;;;;;0.01;100.00;101620.47;6039898;23;20022;-67
2022/12/19 03:06:11;;;;;;;3.65;3.47;;;;;;;-0.02;100.00;101618.72;6030935;23;20485;-68
2022/12/19 03:09:15;;;;;;;5.60;4.78;;;;;;;-0.31;100.00;101557.50;6042856;23;20531;-69
2022/12/19 03:11:45;;;;;;;5.78;4.50;;;;;;;-0.42;100.00;101561.72;5932699;23;20018;-70
2022/12/19 03:14:16;;;;;;;4.53;3.85;;;;;;;0.10;100.00;101625.66;6038537;23;20059;-69
2022/12/19 03:16:42;;;;;;;3.88;3.67;;;;;;;-0.70;100.00;101497.06;6000971;23;20026;-69
2022/12/19 03:19:12;;;;;;;3.70;3.38;;;;;;;0.12;100.00;101624.84;6033867;23;20265;-70
2022/12/19 03:21:41;;;;;;;4.22;3.92;;;;;;;-1.17;100.00;101419.44;6039516;23;20651;-69
2022/12/19 03:24:10;;;;;;;5.38;4.85;;;;;;;0.10;100.00;101605.03;6042606;23;20236;-69
2022/12/19 03:26:43;;;;;;;5.13;4.60;;;;;;;0.18;100.00;101624.88;6032183;23;20088;-69
2022/12/19 03:29:16;;;;;;;4.68;4.45;;;;;;;0.21;100.00;101628.34;6041334;23;20034;-70
2022/12/19 03:31:45;;;;;;;17.08;6.57;;;;;;;-0.44;100.00;101499.81;6030311;23;20041;-69
2022/12/19 03:34:21;;;;;;;5.18;4.75;;;;;;;0.14;100.00;101601.59;6033801;23;20651;-69
2022/12/19 03:36:54;;;;;;;5.65;4.57;;;;;;;0.05;100.00;101583.50;6036683;23;20018;-69
2022/12/19 03:39:22;;;;;;;8.55;4.68;;;;;;;0.26;100.00;101611.13;6034340;23;20026;-70
2022/12/19 03:44:40;;;;;;;4.53;4.13;;;;;;;0.25;100.00;101599.94;6039763;23;20034;-69
2022/12/19 03:47:29;;;;;;;4.65;4.35;;;;;;;0.24;100.00;101599.94;6028857;23;20093;-70
2022/12/19 03:49:56;;;;;;;5.30;4.70;;;;;;;0.06;100.00;101573.19;6035401;23;20038;-70
2022/12/19 03:52:34;;;;;;;5.03;4.47;;;;;;;0.23;100.00;101593.06;6037307;23;20022;-70
2022/12/19 03:55:22;;;;;;;8.10;4.88;;;;;;;0.18;100.00;101582.69;6040427;23;20030;-69
2022/12/19 03:57:55;;;;;;;5.55;5.18;;;;;;;0.18;100.00;101581.00;6037571;23;20018;-69
2022/12/19 04:00:24;;;;;;;6.65;5.03;;;;;;;-0.37;100.00;101497.28;6039700;23;20584;-70
2022/12/19 04:02:53;;;;;;;4.13;3.92;;;;;;;0.08;100.00;101547.38;6042254;23;20468;-69
2022/12/19 04:05:23;;;;;;;4.22;4.03;;;;;;;0.16;100.00;101561.19;6035433;23;20081;-69
2022/12/19 04:07:52;;;;;;;3.97;3.78;;;;;;;0.12;100.00;101559.44;6041944;23;20486;-68
2022/12/19 04:10:24;;;;;;;5.57;5.13;;;;;;;-0.43;100.00;101455.13;6039218;23;20018;-68
2022/12/19 04:13:03;;;;;;;3.83;3.63;;;;;;;-0.57;100.00;101438.72;6036723;23;20025;-69
2022/12/19 04:15:36;;;;;;;4.85;4.05;;;;;;;-0.04;100.00;101512.94;6057172;23;20487;-68
2022/12/19 04:18:05;;;;;;;4.35;3.95;;;;;;;-0.09;100.00;101506.03;6036040;23;20018;-68
2022/12/19 04:20:36;;;;;;;3.92;3.63;;;;;;;-0.45;100.00;101440.50;6047707;23;20085;-69
2022/12/19 04:23:15;;;;;;;4.13;3.83;;;;;;;0.08;100.00;101526.72;6033983;23;20049;-69
2022/12/19 04:25:49;;;;;;;4.95;4.65;;;;;;;0.09;100.00;101528.47;6034171;23;20102;-69
2022/12/19 04:28:25;;;;;;;5.30;5.00;;;;;;;0.12;100.00;101523.31;6041376;23;20015;-69
2022/12/19 04:30:53;;;;;;;8.70;8.07;;;;;;;0.14;100.00;101519.91;6037040;23;20105;-70
2022/12/19 04:33:19;;;;;;;4.38;3.97;;;;;;;0.15;100.00;101521.59;6034381;23;20022;-69
2022/12/19 04:35:46;;;;;;;6.03;4.55;;;;;;;0.05;100.00;101488.88;6043914;23;20038;-70
2022/12/19 04:38:12;;;;;;;5.97;4.85;;;;;;;-0.07;100.00;101489.69;6040955;23;20194;-70
2022/12/19 04:40:39;;;;;;;3.70;3.50;;;;;;;-0.06;100.00;101459.56;6040273;23;20026;-70
2022/12/19 04:43:07;;;;;;;5.18;4.75;;;;;;;-0.13;100.00;101453.53;6039317;23;20022;-70
2022/12/19 04:45:34;;;;;;;5.53;4.93;;;;;;;0.12;100.00;101484.59;6045543;23;20198;-70
2022/12/19 04:48:01;;;;;;;6.32;4.30;;;;;;;0.16;100.00;101483.75;6041107;23;20038;-70
2022/12/19 04:50:27;;;;;;;24.98;4.88;;;;;;;0.31;100.00;101496.72;6044615;23;20356;-70
2022/12/19 04:52:57;;;;;;;7.45;5.05;;;;;;;0.27;100.00;101468.31;6039290;23;20494;-70
2022/12/19 04:55:23;;;;;;;4.75;4.43;;;;;;;0.42;100.00;101485.53;6048282;23;20379;-70
2022/12/19 04:57:50;;;;;;;5.13;4.60;;;;;;;0.42;100.00;101488.13;6041527;23;20100;-70
2022/12/19 05:00:16;;;;;;;4.88;4.47;;;;;;;0.05;100.00;101420.94;6043158;23;20026;-70
2022/12/19 05:02:44;;;;;;;4.72;4.43;;;;;;;0.26;100.00;101454.56;6044001;23;20030;-70
2022/12/19 05:05:11;;;;;;;3.63;3.42;;;;;;;0.46;100.00;101474.38;6032813;23;20067;-68
2022/12/19 05:07:37;;;;;;;6.68;4.10;;;;;;;0.45;100.00;101478.69;6033130;23;20591;-71
2022/12/19 05:10:04;;;;;;;4.07;3.88;;;;;;;0.46;100.00;101472.66;6029433;23;20435;-69
2022/12/19 05:12:30;;;;;;;5.13;4.38;;;;;;;0.49;100.00;101470.06;6034786;23;20014;-69
2022/12/19 05:14:57;;;;;;;4.63;4.22;;;;;;;-0.23;100.00;101336.56;6037061;23;20612;-69
2022/12/19 05:17:23;;;;;;;3.50;3.28;;;;;;;0.01;100.00;101375.34;6036495;23;20015;-69
2022/12/19 05:19:49;;;;;;;3.95;3.75;;;;;;;0.56;100.00;101455.44;6047445;23;20038;-69
2022/12/19 05:22:16;;;;;;;4.40;4.10;;;;;;;0.57;100.00;101457.19;6036530;23;20007;-69
2022/12/19 05:24:42;;;;;;;3.67;3.42;;;;;;;0.57;100.00;101442.53;6037727;23;20265;-69
2022/12/19 05:27:09;;;;;;;5.30;4.40;;;;;;;-0.01;100.00;101362.41;6034660;23;20105;-69
2022/12/19 05:29:35;;;;;;;6.63;5.10;;;;;;;0.62;100.00;101444.25;6033989;23;20223;-68
2022/12/19 05:32:01;;;;;;;7.15;4.57;;;;;;;0.45;100.00;101411.53;6040544;23;20096;-69
2022/12/19 05:34:28;;;;;;;6.05;4.80;;;;;;;0.56;100.00;101424.44;6037200;23;20019;-69
2022/12/19 05:36:54;;;;;;;4.38;4.13;;;;;;;0.69;100.00;101446.84;6040062;23;20039;-69
2022/12/19 05:39:21;;;;;;;4.82;4.43;;;;;;;0.77;100.00;101457.19;6030294;23;20020;-71
2022/12/19 05:41:47;;;;;;;4.93;4.53;;;;;;;0.51;100.00;101415.84;6038045;23;20073;-69
2022/12/19 05:44:15;;;;;;;4.93;4.50;;;;;;;0.78;100.00;101446.88;6047221;23;20098;-71
2022/12/19 05:46:41;;;;;;;4.53;4.13;;;;;;;0.46;100.00;101404.63;6041316;23;20086;-71
2022/12/19 05:49:08;;;;;;;4.85;4.45;;;;;;;0.49;100.00;101409.81;6041638;23;20623;-71
2022/12/19 05:51:37;;;;;;;6.00;5.53;;;;;;;0.48;100.00;101397.75;6036170;23;20057;-71
2022/12/19 05:54:03;;;;;;;4.63;4.22;;;;;;;0.33;100.00;101376.22;6044446;23;20889;-70
2022/12/19 05:56:30;;;;;;;4.53;4.13;;;;;;;0.86;100.00;101454.59;6036229;23;20025;-69
2022/12/19 05:58:56;;;;;;;5.55;5.05;;;;;;;0.48;100.00;101392.59;6032818;23;20026;-69
2022/12/19 06:01:25;;;;;;;4.82;4.53;;;;;;;0.94;100.00;101445.16;6005485;23;20018;-73
2022/12/19 06:03:53;;;;;;;4.28;3.97;;;;;;;1.01;100.00;101446.00;6032823;23;20038;-69
2022/12/19 06:06:23;;;;;;;6.13;5.72;;;;;;;1.00;100.00;101449.44;6036858;23;20579;-68
2022/12/19 06:08:57;;;;;;;4.97;4.68;;;;;;;0.66;100.00;101381.41;6034912;23;20018;-68
2022/12/19 06:11:24;;;;;;;6.80;4.38;;;;;;;0.60;100.00;101361.59;6015947;23;20017;-71
2022/12/19 06:13:51;;;;;;;4.47;4.10;;;;;;;1.07;100.00;101439.97;6035744;23;20110;-68
2022/12/19 06:16:20;;;;;;;8.32;4.03;;;;;;;1.07;100.00;101430.47;6025813;23;20038;-69
2022/12/19 06:18:47;;;;;;;4.68;4.45;;;;;;;0.18;100.00;101285.88;6036917;23;20618;-69
2022/12/19 06:21:16;;;;;;;7.97;3.63;;;;;;;0.55;100.00;101345.25;6040309;23;20036;-69
2022/12/19 06:23:43;;;;;;;6.25;5.28;;;;;;;0.65;100.00;101365.06;6046896;23;20460;-69
2022/12/19 06:26:12;;;;;;;4.95;4.55;;;;;;;1.18;100.00;101451.13;6037708;23;20042;-69
2022/12/19 06:28:45;;;;;;;4.15;3.85;;;;;;;1.19;100.00;101445.13;6047852;23;20084;-71
2022/12/19 06:31:12;;;;;;;3.63;3.42;;;;;;;1.21;100.00;101438.22;5999964;23;20030;-69
2022/12/19 06:33:39;;;;;;;3.70;3.50;;;;;;;1.27;100.00;101434.75;6035703;23;20155;-69
2022/12/19 06:36:27;;;;;;;3.85;3.65;;;;;;;0.25;100.00;101259.22;6048645;23;20026;-69
2022/12/19 06:38:56;;;;;;;5.15;4.75;;;;;;;1.32;100.00;101441.66;6032513;23;20042;-69
2022/12/19 06:44:12;;;;;;;10.98;5.00;;;;;;;1.06;100.00;101378.78;6033033;23;20802;-69
2022/12/19 06:46:40;;;;;;;7.40;4.75;;;;;;;1.13;100.00;101385.66;6036071;23;20076;-69
2022/12/19 06:49:07;;;;;;;5.63;4.25;;;;;;;0.78;100.00;101321.97;6034276;23;20023;-70
2022/12/19 06:51:33;;;;;;;5.10;4.72;;;;;;;1.46;100.00;101444.19;6044339;23;21238;-70
2022/12/19 06:54:00;;;;;;;4.97;4.68;;;;;;;0.89;100.00;101319.38;6038843;23;20035;-69
2022/12/19 06:56:27;;;;;;;3.92;3.72;;;;;;;0.88;100.00;101327.97;6042554;23;20037;-70
2022/12/19 06:58:54;;;;;;;5.93;5.43;;;;;;;1.59;100.00;101421.75;6042902;23;20035;-70
2022/12/19 07:01:37;;;;;;;7.32;4.38;;;;;;;1.13;100.00;101357.22;6048343;23;20517;-69
2022/12/19 07:04:04;;;;;;;4.05;3.85;;;;;;;1.39;100.00;101388.19;6036218;23;20034;-69
2022/12/19 07:06:30;;;;;;;5.15;4.78;;;;;;;1.59;100.00;101419.16;6035134;23;20564;-70
2022/12/19 07:08:59;;;;;;;4.43;4.22;;;;;;;1.73;100.00;101434.63;6037026;23;20097;-69
2022/12/19 07:11:25;;;;;;;4.57;4.30;;;;;;;1.45;100.00;101372.66;6030015;23;20025;-69
2022/12/19 07:13:52;;;;;;;4.38;3.97;;;;;;;1.84;100.00;101422.50;6033012;23;20089;-69
2022/12/19 07:16:19;;;;;;;4.20;4.00;;;;;;;1.87;100.00;101419.91;6038253;23;20579;-70
2022/12/19 07:18:45;;;;;;;4.95;4.07;;;;;;;1.49;100.00;101352.81;6039294;23;20030;-69
2022/12/19 07:21:12;;;;;;;8.05;4.93;;;;;;;1.95;100.00;101405.19;6037694;23;20092;-70
2022/12/19 07:23:39;;;;;;;8.02;4.47;;;;;;;1.94;100.00;101416.41;6039275;23;20033;-69
2022/12/19 07:26:06;;;;;;;4.28;4.05;;;;;;;1.68;100.00;101364.78;6040955;23;20045;-70
2022/12/19 07:28:33;;;;;;;7.30;4.88;;;;;;;2.01;100.00;101421.56;6020374;23;20027;-69
2022/12/19 07:30:59;;;;;;;5.43;5.00;;;;;;;1.59;100.00;101365.69;6042573;23;20009;-70
2022/12/19 07:33:26;;;;;;;5.20;4.78;;;;;;;2.03;100.00;101428.47;6040226;23;20592;-69
2022/12/19 07:35:52;;;;;;;4.40;4.07;;;;;;;1.55;100.00;101361.38;6031823;23;20038;-70
2022/12/19 07:38:19;;;;;;;6.05;5.47;;;;;;;1.70;100.00;101369.94;6048498;23;20015;-70
2022/12/19 07:40:45;;;;;;;4.88;4.57;;;;;;;1.05;100.00;101263.34;6044375;23;20080;-69
2022/12/19 07:43:11;;;;;;;3.85;3.65;;;;;;;2.04;100.00;101432.75;6047085;23;20121;-70
2022/12/19 07:45:38;;;;;;;3.75;3.55;;;;;;;1.70;100.00;101359.59;6015515;23;20026;-70
2022/12/19 07:48:05;;;;;;;5.57;5.15;;;;;;;2.12;100.00;101433.56;6019800;23;20038;-71
2022/12/19 07:50:33;;;;;;;4.88;3.70;;;;;;;1.86;100.00;101402.63;6037123;23;20027;-70
2022/12/19 07:52:59;;;;;;;4.95;4.45;;;;;;;1.95;100.00;101399.16;6041962;23;20038;-70
2022/12/19 07:55:26;;;;;;;5.88;5.43;;;;;;;2.12;100.00;101433.56;5998385;23;20080;-72
2022/12/19 07:57:54;;;;;;;3.90;3.50;;;;;;;0.77;100.00;101210.03;6025013;23;20053;-72
2022/12/19 08:00:21;;;;;;;12.20;5.53;;;;;;;1.99;100.00;101406.91;6038397;23;20089;-71
2022/12/19 08:02:47;;;;;;;5.97;4.28;;;;;;;1.07;100.00;101265.06;6042238;23;20029;-71
2022/12/19 08:05:14;;;;;;;5.10;4.68;;;;;;;1.85;100.00;101375.06;6031186;23;20030;-70
2022/12/19 08:07:40;;;;;;;6.50;3.83;;;;;;;1.20;100.00;101271.00;6006094;23;20077;-70
2022/12/19 08:10:07;;;;;;;4.13;3.95;;;;;;;2.30;100.00;101436.94;6010599;23;20113;-70
2022/12/19 08:12:34;;;;;;;8.43;5.18;;;;;;;1.96;100.00;101390.50;6034866;23;20026;-70
2022/12/19 08:15:00;;;;;;;5.53;5.07;;;;;;;2.21;100.00;101421.47;6042033;23;20034;-71
2022/12/19 08:17:27;;;;;;;5.47;4.28;;;;;;;2.35;100.00;101446.41;6018902;23;20023;-70
2022/12/19 08:19:53;;;;;;;4.25;4.05;;;;;;;2.39;100.00;101448.09;6036638;23;21324;-70
2022/12/19 08:22:19;;;;;;;4.82;4.53;;;;;;;2.43;100.00;101453.28;6041075;23;20010;-70
2022/12/19 08:24:46;;;;;;;9.18;4.25;;;;;;;1.85;100.00;101361.25;6040016;23;20034;-70
2022/12/19 08:27:15;;;;;;;9.93;5.82;;;;;;;1.96;100.00;101369.81;6036376;23;20030;-71
2022/12/19 08:29:41;;;;;;;5.78;4.60;;;;;;;2.47;100.00;101457.56;6036469;23;20042;-70
2022/12/19 08:32:08;;;;;;;6.18;5.70;;;;;;;2.19;100.00;101408.53;6028631;23;20682;-71
2022/12/19 08:34:34;;;;;;;5.38;4.97;;;;;;;2.52;100.00;101454.03;6010237;23;20110;-71
2022/12/19 08:37:01;;;;;;;5.53;5.13;;;;;;;2.54;100.00;101446.28;6033587;23;20017;-71
2022/12/19 08:39:27;;;;;;;9.73;5.90;;;;;;;2.43;100.00;101427.38;6008168;23;20055;-71
2022/12/19 08:41:53;;;;;;;5.78;5.38;;;;;;;2.60;100.00;101457.44;6037180;23;20022;-71
2022/12/19 08:44:20;;;;;;;7.57;5.55;;;;;;;2.62;100.00;101457.44;5994085;23;20607;-71
2022/12/19 08:46:46;;;;;;;5.07;4.65;;;;;;;2.51;100.00;101454.94;6039428;23;20010;-70
2022/12/19 08:49:16;;;;;;;7.95;5.68;;;;;;;2.06;100.00;101350.75;6034638;23;20038;-71
2022/12/19 08:51:42;;;;;;;4.82;4.03;;;;;;;2.67;100.00;101442.72;6034696;23;20582;-70
2022/12/19 08:54:09;;;;;;;5.10;4.72;;;;;;;2.13;100.00;101336.91;6035885;23;20019;-71
2022/12/19 08:56:40;;;;;;;4.43;4.13;;;;;;;2.78;100.00;101430.53;6044103;23;20018;-71
2022/12/19 08:59:12;;;;;;;5.22;4.93;;;;;;;2.40;100.00;101360.88;6040176;23;20039;-70
2022/12/19 09:01:41;;;;;;;4.88;4.57;;;;;;;2.62;100.00;101386.63;6051978;23;20012;-70
2022/12/19 09:04:07;;;;;;;6.57;5.93;;;;;;;2.76;100.00;101403.75;6019151;23;20622;-70
2022/12/19 09:06:55;;;;;;;5.25;4.75;;;;;;;2.53;100.00;101361.66;6001368;23;20054;-70
2022/12/19 09:09:21;;;;;;;4.63;4.22;;;;;;;2.99;100.00;101437.28;6008635;23;20038;-70
2022/12/19 09:11:47;;;;;;;5.28;4.97;;;;;;;3.07;100.00;101442.41;6030839;23;20634;-70
2022/12/19 09:14:14;;;;;;;6.18;5.57;;;;;;;2.83;100.00;101377.78;6038283;23;20106;-70
2022/12/19 09:16:46;;;;;;;5.28;4.75;;;;;;;2.57;100.00;101332.25;6046695;23;20069;-70
2022/12/19 09:19:15;;;;;;;4.80;4.40;;;;;;;3.15;100.00;101393.06;6010689;23;20121;-71
2022/12/19 09:21:42;;;;;;;4.90;4.53;;;;;;;3.32;100.00;101421.41;6040132;23;20026;-71
2022/12/19 09:24:09;;;;;;;6.53;5.93;;;;;;;3.35;100.00;101417.03;6016756;23;20057;-70
2022/12/19 09:26:38;;;;;;;5.85;5.55;;;;;;;2.74;100.00;101314.78;6009488;23;20030;-71
2022/12/19 09:29:05;;;;;;;14.57;6.47;;;;;;;3.22;100.00;101373.09;6037256;23;20030;-71
2022/12/19 09:31:45;;;;;;;5.88;5.28;;;;;;;3.32;100.00;101391.13;6040884;23;20030;-70
2022/12/19 09:34:12;;;;;;;7.20;4.72;;;;;;;3.35;100.00;101390.25;6016712;23;20026;-70
2022/12/19 09:36:38;;;;;;;11.50;5.55;;;;;;;3.39;100.00;101402.31;6008296;23;20022;-70
2022/12/19 09:39:04;;;;;;;5.32;5.03;;;;;;;3.08;100.00;101350.75;6039487;23;20318;-70
2022/12/19 09:42:04;;;;;;;9.90;5.05;;;;;;;3.28;100.00;101373.03;6005546;23;20025;-70
2022/12/19 09:44:51;;;;;;;5.32;4.85;;;;;;;3.37;100.00;101375.53;6039830;23;20027;-70
2022/12/19 09:47:30;;;;;;;6.60;5.95;;;;;;;3.41;100.00;101387.59;6028749;23;20082;-70
2022/12/19 09:49:58;;;;;;;9.02;5.30;;;;;;;3.57;100.00;101406.44;5989306;23;20030;-70
2022/12/19 09:52:33;;;;;;;6.38;5.57;;;;;;;3.45;100.00;101399.66;6034662;23;20015;-70
2022/12/19 09:55:07;;;;;;;7.97;5.75;;;;;;;3.72;100.00;101441.72;6029800;23;20021;-71
2022/12/19 09:57:40;;;;;;;5.18;4.78;;;;;;;3.69;100.00;101440.03;6035559;23;20053;-71
2022/12/19 10:00:18;;;;;;;6.28;5.68;;;;;;;3.68;100.00;101445.22;6028519;23;20039;-72
2022/12/19 10:03:20;;;;;;;5.47;5.07;;;;;;;3.64;100.00;101448.75;6039451;23;20077;-71
2022/12/19 10:05:52;;;;;;;6.65;4.70;;;;;;;3.29;100.00;101405.88;5994676;23;20034;-71
2022/12/19 10:08:43;;;;;;;7.88;4.78;;;;;;;3.62;100.00;101448.75;6036477;23;20084;-71
2022/12/19 10:11:38;;;;;;;5.68;5.22;;;;;;;3.60;100.00;101445.31;6005672;23;20340;-70
2022/12/19 10:15:00;;;;;;;5.85;5.45;;;;;;;3.62;100.00;101455.69;6031149;23;20045;-70
2022/12/19 10:17:37;;;;;;;6.22;5.55;;;;;;;3.63;100.00;101449.59;6026890;23;20018;-68
2022/12/19 10:20:27;;;;;;;6.00;5.53;;;;;;;3.28;100.00;101391.19;6040827;23;20030;-68
2022/12/19 10:23:02;;;;;;;4.55;4.25;;;;;;;2.62;100.00;101273.47;6026179;23;20038;-70
2022/12/19 10:25:38;;;;;;;5.57;5.15;;;;;;;2.39;100.00;101232.25;6028353;23;20039;-71
2022/12/19 10:28:18;;;;;;;4.45;4.20;;;;;;;3.73;100.00;101451.25;6034034;23;20080;-67
2022/12/19 10:31:17;;;;;;;7.47;5.75;;;;;;;3.83;100.00;101449.38;6035575;23;20457;-67
2022/12/19 10:34:01;;;;;;;;;;;;;;;3.82;100.00;101438.13;6033672;23;20478;-68
2022/12/19 10:36:36;;;;;;;5.47;5.03;;;;;;;3.52;100.00;101377.91;6018891;23;19981;-66
2022/12/19 10:39:40;;;;;;;10.40;4.60;;;;;;;3.88;100.00;101450.19;6034934;23;20030;-67
2022/12/19 10:42:18;;;;;;;7.20;6.30;;;;;;;3.43;100.00;101378.03;6021028;23;20055;-67
2022/12/19 10:44:47;;;;;;;6.35;5.63;;;;;;;3.48;100.00;101375.38;6045223;23;20508;-68
2022/12/19 10:47:15;;;;;;;5.75;4.53;;;;;;;3.64;100.00;101376.91;6044613;23;20022;-70
2022/12/19 10:49:42;;;;;;;5.32;4.88;;;;;;;3.88;100.00;101422.47;6010757;23;20026;-66
2022/12/19 10:52:11;;;;;;;5.70;5.32;;;;;;;3.59;100.00;101366.59;6040960;23;20071;-66
2022/12/19 10:54:42;;;;;;;8.15;5.85;;;;;;;3.92;100.00;101429.34;6036740;23;20030;-66
2022/12/19 10:57:20;;;;;;;5.32;4.95;;;;;;;3.92;100.00;101418.09;6034160;23;20061;-67
2022/12/19 11:00:15;;;;;;;4.90;4.50;;;;;;;3.52;100.00;101362.34;6011302;23;20050;-70
2022/12/19 11:02:52;;;;;;;7.68;5.65;;;;;;;3.56;100.00;101377.00;6031851;23;20015;-67
2022/12/19 11:05:25;;;;;;;10.10;6.35;;;;;;;3.90;100.00;101431.09;6040236;23;20011;-67
2022/12/19 11:08:07;;;;;;;7.10;5.28;;;;;;;3.91;100.00;101437.16;6038928;23;20085;-67
2022/12/19 11:10:52;;;;;;;5.47;5.18;;;;;;;3.72;100.00;101433.94;6042630;23;20028;-70
2022/12/19 11:13:44;;;;;;;7.32;4.25;;;;;;;3.82;100.00;101435.53;6038147;23;20364;-68
2022/12/19 11:16:35;;;;;;;8.45;4.93;;;;;;;3.79;100.00;101417.41;6043874;23;20033;-68
2022/12/19 11:19:35;;;;;;;5.70;5.20;;;;;;;3.94;100.00;101424.13;6037772;23;20044;-67
2022/12/19 11:22:28;;;;;;;8.73;5.97;;;;;;;3.92;100.00;101429.34;6038588;23;20015;-66
2022/12/19 11:25:18;;;;;;;4.68;4.28;;;;;;;3.72;100.00;101382.00;6046657;23;20014;-68
2022/12/19 11:28:20;;;;;;;6.70;6.03;;;;;;;4.04;100.00;101427.47;6018185;23;20118;-69
2022/12/19 11:31:22;;;;;;;7.85;5.03;;;;;;;3.99;100.00;101420.59;6025232;23;20125;-69
2022/12/19 11:34:17;;;;;;;6.97;6.38;;;;;;;4.18;100.00;101433.34;6041426;23;20397;-69
2022/12/19 11:36:50;;;;;;;6.72;6.22;;;;;;;4.17;100.00;101423.84;6042770;23;20016;-68
2022/12/19 11:39:46;;;;;;;6.95;6.22;;;;;;;4.15;100.00;101421.25;6040816;23;20026;-69
2022/12/19 11:42:34;;;;;;;6.45;5.85;;;;;;;3.84;100.00;101363.66;6026658;23;20386;-69
2022/12/19 11:45:16;;;;;;;7.20;6.60;;;;;;;3.91;100.00;101377.41;6044508;23;20107;-69
2022/12/19 11:48:02;;;;;;;8.80;6.60;;;;;;;4.26;100.00;101446.22;6041577;23;20031;-69
2022/12/19 11:50:39;;;;;;;5.47;5.07;;;;;;;4.22;100.00;101434.16;6041766;23;20082;-69
2022/12/19 11:53:29;;;;;;;8.57;5.18;;;;;;;4.31;100.00;101440.09;6003015;23;20031;-69
2022/12/19 11:56:04;;;;;;;5.30;5.00;;;;;;;4.34;100.00;101437.44;6045604;23;20481;-70